createdAt,value
2018-12-25T00:01:49.340Z,0.40
2018-12-25T00:04:17.846Z,0.50
2018-12-25T00:06:47.792Z,2.93
2018-12-25T00:09:15.861Z,2.20
2018-12-25T00:11:44.005Z,2.23
2018-12-25T00:14:12.546Z,1.30
2018-12-25T00:16:41.028Z,0.60
2018-12-25T00:19:09.123Z,0.73
2018-12-25T00:21:37.373Z,0.70
2018-12-25T00:24:05.465Z,1.23
2018-12-25T00:26:33.605Z,1.80
2018-12-25T00:29:01.692Z,0.53
2018-12-25T00:31:29.832Z,0.80
2018-12-25T00:33:57.940Z,0.60
2018-12-25T00:36:26.065Z,0.60
2018-12-25T00:38:54.146Z,0.70
2018-12-25T00:41:22.287Z,1.20
2018-12-25T00:43:50.360Z,0.40
2018-12-25T00:46:18.488Z,0.43
2018-12-25T00:48:46.621Z,0.30
2018-12-25T00:51:15.197Z,0.50
2018-12-25T00:53:43.280Z,0.53
2018-12-25T00:56:11.588Z,0.50
2018-12-25T00:58:39.720Z,0.60
2018-12-25T01:01:07.961Z,0.50
2018-12-25T01:03:36.056Z,0.60
2018-12-25T01:06:04.819Z,0.50
2018-12-25T01:08:32.915Z,0.40
2018-12-25T01:11:01.057Z,1.10
2018-12-25T01:13:29.142Z,0.60
2018-12-25T01:15:57.373Z,0.93
2018-12-25T01:18:25.483Z,1.07
2018-12-25T01:20:53.621Z,0.30
2018-12-25T01:23:21.685Z,0.83
2018-12-25T01:25:49.804Z,0.40
2018-12-25T01:28:17.880Z,0.93
2018-12-25T01:30:45.975Z,1.00
2018-12-25T01:33:14.104Z,0.30
2018-12-25T01:35:42.216Z,0.50
2018-12-25T01:38:10.349Z,0.60
2018-12-25T01:40:38.829Z,1.23
2018-12-25T01:43:07.018Z,0.70
2018-12-25T01:45:35.123Z,0.70
2018-12-25T01:48:03.252Z,0.47
2018-12-25T01:50:31.378Z,0.30
2018-12-25T01:52:59.545Z,0.60
2018-12-25T01:55:27.654Z,0.63
2018-12-25T01:57:55.854Z,0.70
2018-12-25T02:00:23.938Z,1.33
2018-12-25T02:02:52.087Z,0.63
2018-12-25T02:05:20.160Z,0.77
2018-12-25T02:07:48.723Z,0.67
2018-12-25T02:10:16.833Z,0.60
2018-12-25T02:12:45.428Z,0.93
2018-12-25T02:15:13.607Z,0.83
2018-12-25T02:17:41.733Z,0.90
2018-12-25T02:20:10.429Z,2.37
2018-12-25T02:22:38.657Z,0.67
2018-12-25T02:25:06.765Z,1.00
2018-12-25T02:27:34.888Z,0.40
2018-12-25T02:30:03.086Z,0.47
2018-12-25T02:32:31.219Z,0.57
2018-12-25T02:34:59.720Z,0.63
2018-12-25T02:37:27.940Z,0.40
2018-12-25T02:39:56.038Z,0.70
2018-12-25T02:42:24.173Z,1.47
2018-12-25T02:44:52.384Z,1.60
2018-12-25T02:47:21.034Z,0.80
2018-12-25T02:49:50.384Z,0.63
2018-12-25T02:52:19.062Z,0.50
2018-12-25T02:54:47.138Z,0.80
2018-12-25T02:57:15.448Z,0.67
2018-12-25T02:59:43.896Z,0.80
2018-12-25T03:02:12.047Z,0.70
2018-12-25T03:04:40.140Z,1.07
2018-12-25T03:07:08.639Z,0.87
2018-12-25T03:09:36.743Z,0.67
2018-12-25T03:12:04.870Z,0.80
2018-12-25T03:14:32.974Z,0.70
2018-12-25T03:17:01.147Z,0.87
2018-12-25T03:19:29.222Z,0.47
2018-12-25T03:21:57.880Z,0.80
2018-12-25T03:24:26.049Z,0.77
2018-12-25T03:26:54.184Z,3.03
2018-12-25T03:29:25.824Z,0.97
2018-12-25T03:31:54.025Z,0.70
2018-12-25T03:34:22.108Z,0.63
2018-12-25T03:36:50.341Z,0.60
2018-12-25T03:39:18.424Z,1.07
2018-12-25T03:41:46.560Z,0.57
2018-12-25T03:44:14.766Z,0.70
2018-12-25T03:46:42.909Z,0.47
2018-12-25T03:49:11.108Z,0.40
2018-12-25T03:51:39.338Z,0.73
2018-12-25T03:54:07.434Z,0.80
2018-12-25T03:56:35.552Z,1.47
2018-12-25T03:59:03.751Z,0.70
2018-12-25T04:01:31.849Z,0.80
2018-12-25T04:03:59.999Z,0.50
2018-12-25T04:06:28.205Z,0.50
2018-12-25T04:08:56.344Z,0.57
2018-12-25T04:11:24.426Z,0.80
2018-12-25T04:13:52.568Z,0.83
2018-12-25T04:16:20.646Z,0.73
2018-12-25T04:18:48.765Z,0.90
2018-12-25T04:21:16.852Z,0.40
2018-12-25T04:23:45.000Z,0.50
2018-12-25T04:26:13.531Z,0.33
2018-12-25T04:28:41.713Z,0.47
2018-12-25T04:31:09.880Z,3.47
2018-12-25T04:33:38.007Z,0.70
2018-12-25T04:36:06.104Z,0.70
2018-12-25T04:38:34.252Z,1.23
2018-12-25T04:41:02.323Z,0.40
2018-12-25T04:43:30.455Z,0.40
2018-12-25T04:45:58.540Z,0.40
2018-12-25T04:48:26.692Z,0.50
2018-12-25T04:50:54.789Z,0.63
2018-12-25T04:53:22.931Z,0.83
2018-12-25T04:55:51.361Z,1.57
2018-12-25T04:58:20.169Z,1.07
2018-12-25T05:00:48.233Z,0.63
2018-12-25T05:03:16.462Z,0.50
2018-12-25T05:05:44.715Z,0.80
2018-12-25T05:08:13.275Z,0.87
2018-12-25T05:10:41.557Z,0.37
2018-12-25T05:13:09.691Z,0.40
2018-12-25T05:15:37.765Z,0.77
2018-12-25T05:18:05.887Z,0.60
2018-12-25T05:20:37.994Z,0.37
2018-12-25T05:23:04.612Z,0.50
2018-12-25T05:25:32.712Z,0.50
2018-12-25T05:28:00.937Z,1.13
2018-12-25T05:30:29.016Z,1.17
2018-12-25T05:32:57.199Z,0.60
2018-12-25T05:35:25.290Z,0.50
2018-12-25T05:37:53.420Z,0.60
2018-12-25T05:40:21.534Z,0.60
2018-12-25T05:42:49.673Z,1.70
2018-12-25T05:45:17.774Z,0.57
2018-12-25T05:47:46.378Z,0.90
2018-12-25T05:50:14.473Z,1.03
2018-12-25T05:52:42.629Z,0.50
2018-12-25T05:55:10.703Z,0.23
2018-12-25T05:57:38.886Z,0.27
2018-12-25T06:00:07.591Z,1.40
2018-12-25T06:02:35.708Z,0.67
2018-12-25T06:05:04.112Z,0.50
2018-12-25T06:07:32.266Z,0.40
2018-12-25T06:10:00.338Z,0.30
2018-12-25T06:12:28.412Z,0.30
2018-12-25T06:14:56.541Z,0.50
2018-12-25T06:17:24.661Z,0.40
2018-12-25T06:19:52.789Z,0.47
2018-12-25T06:22:20.897Z,0.40
2018-12-25T06:24:49.032Z,0.27
2018-12-25T06:27:17.115Z,0.70
2018-12-25T06:29:45.269Z,0.60
2018-12-25T06:32:13.333Z,0.60
2018-12-25T06:34:41.471Z,2.10
2018-12-25T06:37:09.941Z,1.03
2018-12-25T06:39:38.101Z,0.30
2018-12-25T06:42:06.181Z,0.57
2018-12-25T06:44:34.345Z,1.77
2018-12-25T06:47:02.449Z,1.27
2018-12-25T06:49:31.080Z,1.43
2018-12-25T06:51:59.165Z,0.30
2018-12-25T06:54:27.288Z,0.40
2018-12-25T06:56:55.365Z,0.50
2018-12-25T06:59:23.554Z,0.37
2018-12-25T07:01:51.641Z,0.60
2018-12-25T07:04:20.240Z,0.30
2018-12-25T07:06:50.547Z,1.17
2018-12-25T07:09:18.777Z,2.73
2018-12-25T07:11:47.328Z,0.20
2018-12-25T07:14:15.879Z,0.97
2018-12-25T07:16:43.953Z,0.70
2018-12-25T07:19:12.081Z,0.70
2018-12-25T07:21:40.179Z,0.87
2018-12-25T07:24:08.347Z,0.83
2018-12-25T07:26:36.441Z,0.73
2018-12-25T07:29:04.578Z,2.00
2018-12-25T07:31:32.760Z,0.83
2018-12-25T07:34:00.905Z,1.47
2018-12-25T07:36:28.985Z,1.33
2018-12-25T07:38:57.133Z,0.70
2018-12-25T07:41:25.409Z,0.83
2018-12-25T07:43:53.526Z,0.70
2018-12-25T07:46:21.612Z,0.40
2018-12-25T07:48:49.750Z,3.60
2018-12-25T07:51:20.871Z,0.53
2018-12-25T07:53:48.110Z,0.30
2018-12-25T07:56:16.209Z,0.70
2018-12-25T07:58:45.229Z,1.23
2018-12-25T08:01:13.358Z,0.97
2018-12-25T08:03:41.504Z,0.57
2018-12-25T08:06:10.102Z,0.33
2018-12-25T08:08:38.277Z,0.60
2018-12-25T08:11:06.359Z,0.50
2018-12-25T08:13:34.481Z,1.53
2018-12-25T08:16:02.575Z,0.30
2018-12-25T08:18:30.709Z,0.93
2018-12-25T08:20:59.237Z,0.40
2018-12-25T08:23:27.377Z,1.43
2018-12-25T08:25:55.473Z,0.83
2018-12-25T08:28:23.701Z,0.70
2018-12-25T08:30:51.880Z,0.30
2018-12-25T08:33:20.014Z,0.37
2018-12-25T08:35:48.103Z,0.63
2018-12-25T08:38:16.173Z,0.83
2018-12-25T08:40:44.301Z,0.50
2018-12-25T08:43:12.397Z,0.40
2018-12-25T08:45:40.529Z,0.20
2018-12-25T08:48:08.613Z,0.87
2018-12-25T08:50:36.761Z,0.30
2018-12-25T08:53:04.936Z,1.07
2018-12-25T08:55:33.088Z,0.63
2018-12-25T08:58:01.523Z,0.40
2018-12-25T09:00:29.697Z,0.80
2018-12-25T09:02:57.836Z,0.40
2018-12-25T09:05:25.977Z,1.03
2018-12-25T09:07:54.053Z,1.57
2018-12-25T09:10:22.199Z,0.60
2018-12-25T09:12:50.277Z,1.80
2018-12-25T09:15:18.776Z,1.00
2018-12-25T09:17:46.878Z,0.90
2018-12-25T09:20:15.123Z,0.50
2018-12-25T09:22:43.248Z,1.00
2018-12-25T09:25:11.374Z,1.00
2018-12-25T09:27:39.470Z,0.40
2018-12-25T09:30:07.740Z,0.30
2018-12-25T09:32:36.509Z,0.50
2018-12-25T09:35:05.048Z,3.10
2018-12-25T09:37:33.636Z,0.60
2018-12-25T09:40:02.184Z,0.73
2018-12-25T09:42:31.058Z,0.87
2018-12-25T09:44:59.194Z,0.90
2018-12-25T09:47:27.273Z,1.00
2018-12-25T09:49:55.871Z,0.30
2018-12-25T09:52:23.948Z,0.57
2018-12-25T09:54:52.081Z,0.70
2018-12-25T09:57:20.161Z,0.40
2018-12-25T09:59:48.346Z,0.47
2018-12-25T10:02:16.814Z,1.73
2018-12-25T10:04:44.954Z,0.50
2018-12-25T10:07:13.033Z,0.30
2018-12-25T10:09:41.158Z,0.37
2018-12-25T10:12:09.253Z,0.27
2018-12-25T10:14:37.377Z,0.60
2018-12-25T10:17:05.450Z,0.27
2018-12-25T10:19:34.026Z,0.40
2018-12-25T10:22:03.198Z,1.57
2018-12-25T10:24:32.044Z,2.47
2018-12-25T10:27:00.141Z,0.63
2018-12-25T10:29:28.284Z,0.53
2018-12-25T10:31:56.380Z,1.17
2018-12-25T10:34:24.537Z,1.07
2018-12-25T10:36:52.649Z,0.67
2018-12-25T10:39:20.895Z,1.57
2018-12-25T10:41:48.983Z,1.00
2018-12-25T10:44:17.125Z,0.60
2018-12-25T10:46:45.405Z,1.30
2018-12-25T10:49:13.911Z,1.40
2018-12-25T10:51:41.995Z,0.53
2018-12-25T10:54:10.201Z,0.77
2018-12-25T10:56:38.284Z,0.70
2018-12-25T10:59:06.474Z,0.47
2018-12-25T11:01:36.025Z,0.60
2018-12-25T11:04:04.113Z,0.67
2018-12-25T11:06:32.241Z,0.40
2018-12-25T11:09:00.326Z,0.40
2018-12-25T11:11:28.454Z,0.60
2018-12-25T11:13:56.540Z,0.87
2018-12-25T11:16:24.677Z,0.50
2018-12-25T11:18:52.752Z,0.80
2018-12-25T11:21:20.903Z,0.50
2018-12-25T11:23:49.003Z,0.60
2018-12-25T11:26:17.151Z,0.67
2018-12-25T11:28:45.457Z,0.97
2018-12-25T11:31:13.589Z,0.40
2018-12-25T11:33:41.681Z,0.63
2018-12-25T11:36:09.800Z,0.77
2018-12-25T11:38:37.897Z,0.50
2018-12-25T11:41:06.025Z,1.33
2018-12-25T11:43:34.100Z,0.87
2018-12-25T11:46:02.224Z,0.40
2018-12-25T11:48:30.356Z,0.60
2018-12-25T11:50:58.481Z,0.63
2018-12-25T11:53:26.568Z,0.60
2018-12-25T11:55:54.701Z,0.60
2018-12-25T11:58:23.224Z,0.60
2018-12-25T12:00:51.405Z,0.80
2018-12-25T12:03:19.501Z,0.23
2018-12-25T12:05:47.621Z,0.80
2018-12-25T12:08:15.701Z,0.73
2018-12-25T12:10:43.829Z,0.60
2018-12-25T12:13:11.924Z,0.60
2018-12-25T12:15:40.057Z,2.80
2018-12-25T12:18:08.138Z,1.40
2018-12-25T12:20:36.653Z,0.60
2018-12-25T12:23:04.725Z,1.30
2018-12-25T12:25:32.865Z,0.40
2018-12-25T12:28:00.932Z,0.80
2018-12-25T12:30:29.083Z,0.83
2018-12-25T12:32:57.151Z,0.57
2018-12-25T12:35:25.271Z,0.73
2018-12-25T12:37:53.373Z,0.80
2018-12-25T12:40:21.489Z,0.63
2018-12-25T12:42:49.630Z,0.80
2018-12-25T12:45:17.860Z,0.70
2018-12-25T12:47:45.946Z,1.77
2018-12-25T12:50:14.091Z,0.87
2018-12-25T12:52:45.695Z,0.70
2018-12-25T12:55:13.502Z,1.23
2018-12-25T12:57:41.588Z,0.70
2018-12-25T13:00:09.947Z,0.90
2018-12-25T13:02:38.019Z,0.90
2018-12-25T13:05:07.148Z,1.33
2018-12-25T13:07:35.292Z,0.67
2018-12-25T13:10:03.812Z,2.90
2018-12-25T13:12:32.374Z,6.20
2018-12-25T13:15:00.461Z,1.07
2018-12-25T13:17:28.591Z,0.47
2018-12-25T13:19:56.657Z,1.40
2018-12-25T13:22:24.800Z,0.90
2018-12-25T13:24:52.877Z,0.60
2018-12-25T13:27:20.993Z,0.30
2018-12-25T13:29:50.338Z,0.23
2018-12-25T13:32:18.707Z,1.40
2018-12-25T13:34:47.165Z,0.30
2018-12-25T13:37:15.337Z,0.20
2018-12-25T13:39:43.419Z,0.37
2018-12-25T13:42:11.946Z,0.57
2018-12-25T13:44:40.005Z,0.30
2018-12-25T13:47:08.145Z,0.60
2018-12-25T13:49:36.314Z,1.07
2018-12-25T13:52:04.563Z,0.30
2018-12-25T13:54:32.728Z,0.30
2018-12-25T13:57:00.879Z,2.23
2018-12-25T13:59:29.057Z,0.40
2018-12-25T14:01:57.241Z,0.40
2018-12-25T14:04:25.332Z,1.03
2018-12-25T14:06:53.564Z,0.47
2018-12-25T14:09:21.650Z,0.40
2018-12-25T14:11:50.041Z,0.30
2018-12-25T14:14:18.109Z,0.63
2018-12-25T14:16:46.247Z,0.47
2018-12-25T14:19:14.425Z,0.40
2018-12-25T14:21:42.561Z,5.57
2018-12-25T14:24:10.652Z,1.90
2018-12-25T14:26:38.797Z,17.30
2018-12-25T14:29:06.880Z,10.23
2018-12-25T14:31:35.078Z,3.07
2018-12-25T14:34:03.243Z,5.43
2018-12-25T14:36:31.374Z,9.53
2018-12-25T14:38:59.466Z,4.00
2018-12-25T14:41:27.705Z,2.23
2018-12-25T14:43:55.804Z,1.10
2018-12-25T14:46:24.306Z,1.60
2018-12-25T14:48:52.387Z,3.63
2018-12-25T14:51:20.516Z,6.77
2018-12-25T14:53:48.600Z,16.27
2018-12-25T14:56:16.734Z,10.50
2018-12-25T14:58:44.814Z,19.33
2018-12-25T15:01:12.992Z,3.00
2018-12-25T15:03:41.138Z,5.03
2018-12-25T15:06:09.216Z,5.07
2018-12-25T15:08:37.381Z,4.93
2018-12-25T15:11:05.459Z,15.80
2018-12-25T15:13:33.590Z,15.97
2018-12-25T15:16:01.656Z,14.67
2018-12-25T15:18:29.845Z,20.57
2018-12-25T15:20:58.042Z,14.30
2018-12-25T15:23:28.283Z,8.90
2018-12-25T15:25:56.061Z,4.27
2018-12-25T15:28:24.247Z,2.70
2018-12-25T15:30:52.345Z,2.53
2018-12-25T15:33:20.453Z,7.50
2018-12-25T15:35:48.630Z,5.60
2018-12-25T15:38:16.770Z,3.17
2018-12-25T15:40:44.847Z,2.43
2018-12-25T15:43:12.973Z,1.73
2018-12-25T15:45:41.055Z,1.60
2018-12-25T15:48:09.303Z,2.30
2018-12-25T15:50:37.393Z,2.00
2018-12-25T15:53:05.625Z,1.47
2018-12-25T15:55:33.722Z,2.63
2018-12-25T15:58:01.867Z,3.67
2018-12-25T16:00:31.960Z,3.07
2018-12-25T16:03:00.001Z,1.63
2018-12-25T16:05:28.097Z,2.40
2018-12-25T16:07:56.229Z,3.80
2018-12-25T16:10:24.319Z,1.50
2018-12-25T16:12:52.449Z,1.77
2018-12-25T16:15:20.525Z,1.40
2018-12-25T16:17:48.735Z,1.50
2018-12-25T16:20:16.856Z,2.30
2018-12-25T16:22:45.032Z,1.40
2018-12-25T16:25:13.106Z,1.40
2018-12-25T16:27:41.237Z,1.07
2018-12-25T16:30:09.605Z,1.20
2018-12-25T16:32:37.733Z,1.80
2018-12-25T16:35:07.125Z,1.80
2018-12-25T16:37:35.265Z,1.73
2018-12-25T16:40:03.538Z,2.17
2018-12-25T16:42:31.681Z,3.90
2018-12-25T16:44:59.766Z,1.43
2018-12-25T16:47:28.299Z,1.50
2018-12-25T16:49:56.380Z,1.53
2018-12-25T16:52:24.530Z,1.57
2018-12-25T16:54:53.380Z,2.10
2018-12-25T16:57:21.516Z,1.43
2018-12-25T16:59:49.601Z,2.83
2018-12-25T17:02:18.206Z,2.30
2018-12-25T17:04:46.744Z,1.90
2018-12-25T17:07:14.879Z,1.73
2018-12-25T17:09:43.352Z,2.40
2018-12-25T17:12:11.497Z,3.23
2018-12-25T17:14:39.581Z,2.70
2018-12-25T17:17:07.772Z,1.40
2018-12-25T17:19:35.853Z,1.67
2018-12-25T17:22:04.081Z,1.53
2018-12-25T17:24:32.181Z,3.27
2018-12-25T17:27:00.320Z,2.17
2018-12-25T17:29:28.864Z,2.00
2018-12-25T17:31:56.949Z,2.07
2018-12-25T17:34:25.080Z,2.97
2018-12-25T17:36:53.512Z,3.43
2018-12-25T17:39:21.645Z,2.00
2018-12-25T17:41:49.724Z,5.03
2018-12-25T17:44:17.880Z,2.37
2018-12-25T17:46:45.966Z,5.97
2018-12-25T17:49:14.109Z,3.23
2018-12-25T17:51:42.209Z,2.30
2018-12-25T17:54:10.858Z,3.60
2018-12-25T17:56:39.233Z,2.53
2018-12-25T17:59:07.386Z,2.23
2018-12-25T18:01:35.529Z,2.10
2018-12-25T18:04:04.232Z,2.63
2018-12-25T18:06:32.313Z,2.30
2018-12-25T18:09:00.466Z,3.57
2018-12-25T18:11:29.086Z,2.30
2018-12-25T18:13:57.241Z,1.97
2018-12-25T18:16:25.336Z,2.47
2018-12-25T18:18:53.477Z,3.57
2018-12-25T18:21:22.030Z,1.63
2018-12-25T18:23:50.171Z,1.87
2018-12-25T18:26:18.599Z,2.30
2018-12-25T18:28:46.780Z,2.60
2018-12-25T18:31:14.873Z,1.80
2018-12-25T18:33:43.002Z,2.33
2018-12-25T18:36:11.080Z,2.27
2018-12-25T18:38:39.219Z,10.23
2018-12-25T18:41:07.305Z,10.53
2018-12-25T18:43:35.430Z,12.07
2018-12-25T18:46:03.981Z,6.90
2018-12-25T18:48:32.114Z,5.30
2018-12-25T18:51:00.324Z,1.90
2018-12-25T18:53:28.453Z,2.00
2018-12-25T18:55:56.564Z,1.83
2018-12-25T18:58:25.461Z,6.83
2018-12-25T19:00:53.562Z,5.57
2018-12-25T19:03:21.749Z,5.37
2018-12-25T19:05:49.861Z,6.97
2018-12-25T19:08:18.049Z,10.03
2018-12-25T19:10:46.117Z,7.37
2018-12-25T19:13:14.277Z,7.70
2018-12-25T19:15:43.755Z,8.30
2018-12-25T19:18:13.007Z,8.30
2018-12-25T19:20:41.083Z,4.33
2018-12-25T19:23:09.224Z,6.43
2018-12-25T19:25:37.343Z,10.00
2018-12-25T19:28:05.577Z,12.47
2018-12-25T19:30:36.074Z,11.77
2018-12-25T19:33:04.213Z,5.27
2018-12-25T19:35:32.285Z,5.07
2018-12-25T19:38:00.600Z,7.23
2018-12-25T19:40:28.685Z,5.37
2018-12-25T19:42:56.764Z,4.43
2018-12-25T19:45:25.080Z,6.90
2018-12-25T19:47:53.479Z,11.47
2018-12-25T19:50:21.600Z,13.60
2018-12-25T19:52:49.893Z,20.97
2018-12-25T19:55:18.246Z,22.47
2018-12-25T19:57:46.428Z,13.83
2018-12-25T20:00:15.651Z,8.90
2018-12-25T20:02:47.823Z,8.57
2018-12-25T20:05:58.838Z,9.27
2018-12-25T20:08:53.992Z,7.77
2018-12-25T20:11:59.174Z,7.90
2018-12-25T20:15:13.357Z,8.23
2018-12-25T20:18:35.140Z,8.73
2018-12-25T20:21:37.205Z,6.77
2018-12-25T20:25:02.449Z,5.47
2018-12-25T20:28:01.341Z,3.40
2018-12-25T20:31:18.101Z,5.60
2018-12-25T20:34:32.617Z,7.10
2018-12-25T20:37:36.797Z,6.90
2018-12-25T20:40:46.598Z,6.60
2018-12-25T20:43:47.285Z,6.13
2018-12-25T20:47:01.786Z,6.50
2018-12-25T20:50:13.184Z,5.93
2018-12-25T20:53:36.717Z,6.87
2018-12-25T20:56:33.824Z,5.03
2018-12-25T20:59:39.317Z,6.07
2018-12-25T21:02:54.893Z,6.17
2018-12-25T21:06:02.294Z,7.60
2018-12-25T21:09:14.591Z,17.37
2018-12-25T21:12:28.735Z,9.70
2018-12-25T21:15:26.737Z,11.03
2018-12-25T21:18:45.879Z,19.50
2018-12-25T21:22:00.546Z,16.83
2018-12-25T21:25:09.716Z,18.83
2018-12-25T21:27:33.660Z,15.97
2018-12-25T21:30:07.754Z,15.00
2018-12-25T21:32:40.121Z,11.13
2018-12-25T21:35:20.393Z,22.17
2018-12-25T21:37:49.530Z,17.40
2018-12-25T21:40:17.904Z,18.17
2018-12-25T21:42:46.686Z,15.63
2018-12-25T21:45:14.936Z,9.63
2018-12-25T21:47:43.828Z,10.83
2018-12-25T21:50:12.187Z,12.43
2018-12-25T21:52:40.917Z,12.13
2018-12-25T21:55:18.333Z,11.00
2018-12-25T21:57:42.775Z,9.93
2018-12-25T22:00:14.501Z,8.37
2018-12-25T22:02:43.206Z,7.77
2018-12-25T22:05:13.541Z,7.97
2018-12-25T22:07:41.625Z,9.30
2018-12-25T22:10:09.870Z,12.20
2018-12-25T22:12:38.542Z,16.80
2018-12-25T22:15:08.360Z,17.53
2018-12-25T22:17:36.910Z,13.47
2018-12-25T22:20:25.145Z,9.33
2018-12-25T22:22:53.291Z,11.47
2018-12-25T22:25:27.032Z,8.73
2018-12-25T22:27:51.421Z,10.97
2018-12-25T22:30:19.553Z,12.70
2018-12-25T22:32:47.637Z,14.07
2018-12-25T22:35:16.670Z,13.00
2018-12-25T22:37:44.772Z,9.17
2018-12-25T22:40:12.921Z,12.93
2018-12-25T22:42:41.021Z,10.93
2018-12-25T22:45:09.266Z,8.90
2018-12-25T22:47:37.414Z,8.00
2018-12-25T22:50:05.978Z,9.33
2018-12-25T22:52:34.057Z,9.40
2018-12-25T22:55:02.310Z,10.23
2018-12-25T22:57:30.493Z,12.77
2018-12-25T22:59:58.629Z,9.43
2018-12-25T23:02:26.756Z,11.40
2018-12-25T23:04:56.561Z,10.27
2018-12-25T23:07:24.632Z,11.07
2018-12-25T23:09:52.868Z,9.70
2018-12-25T23:12:21.001Z,10.17
2018-12-25T23:14:49.929Z,13.03
2018-12-25T23:17:18.019Z,13.17
2018-12-25T23:19:46.181Z,10.53
2018-12-25T23:22:14.641Z,12.80
2018-12-25T23:24:44.153Z,10.50
2018-12-25T23:27:12.739Z,10.20
2018-12-25T23:29:43.655Z,9.90
2018-12-25T23:32:12.149Z,9.93
2018-12-25T23:34:40.298Z,12.80
2018-12-25T23:37:08.380Z,9.20
2018-12-25T23:39:36.520Z,12.57
2018-12-25T23:42:04.694Z,9.93
2018-12-25T23:44:32.844Z,9.63
2018-12-25T23:47:01.030Z,10.33
2018-12-25T23:49:29.860Z,8.40
2018-12-25T23:51:57.941Z,6.77
2018-12-25T23:54:26.100Z,7.53
2018-12-25T23:56:54.214Z,5.80
2018-12-25T23:59:22.345Z,6.93
